Time;durP1;ratioP1;P1;durP2;ratioP2;P2;SDS_P1;SDS_P2;PMS_P1;PMS_P2;Temp;Humidity;BMP_temperature;BMP_pressure;BME280_temperature;BME280_humidity;BME280_pressure;Samples;Min_cycle;Max_cycle;Signal;HPM_P1;HPM_P2
2023/05/19 00:00:02;;;;;;;9.95;9.35;;;;;;;;;;5000855;28;20034;-62
2023/05/19 00:02:32;;;;;;;10.30;9.70;;;;;;;;;;4999973;28;20048;-61
2023/05/19 00:05:01;;;;;;;9.77;9.18;;;;;;;;;;4996551;28;20444;-61
2023/05/19 00:07:29;;;;;;;9.98;9.38;;;;;;;;;;4997927;28;20097;-61
2023/05/19 00:09:55;;;;;;;10.10;9.50;;;;;;;;;;4999701;28;20046;-62
2023/05/19 00:12:21;;;;;;;10.80;10.10;;;;;;;;;;4998659;28;20041;-62
2023/05/19 00:14:46;;;;;;;9.93;9.32;;;;;;;;;;4997141;28;20126;-62
2023/05/19 00:17:12;;;;;;;10.20;9.60;;;;;;;;;;4983400;28;20528;-62
2023/05/19 00:19:38;;;;;;;9.68;9.07;;;;;;;;;;4999321;28;20033;-62
2023/05/19 00:22:04;;;;;;;11.23;10.52;;;;;;;;;;4998643;28;20249;-62
2023/05/19 00:24:29;;;;;;;10.05;9.45;;;;;;;;;;4995423;28;20559;-62
2023/05/19 00:26:54;;;;;;;11.55;10.85;;;;;;;;;;5001477;28;20046;-62
2023/05/19 00:29:20;;;;;;;9.85;9.25;;;;;;;;;;4998849;28;20034;-62
2023/05/19 00:31:45;;;;;;;9.77;9.18;;;;;;;;;;5002656;28;20034;-61
2023/05/19 00:34:10;;;;;;;9.77;9.18;;;;;;;;;;4994755;28;20053;-62
2023/05/19 00:36:36;;;;;;;10.63;9.93;;;;;;;;;;4997030;28;20033;-61
2023/05/19 00:39:01;;;;;;;11.10;10.40;;;;;;;;;;4978997;28;20038;-61
2023/05/19 00:41:27;;;;;;;10.98;10.27;;;;;;;;;;4996307;28;20535;-61
2023/05/19 00:43:53;;;;;;;10.75;10.05;;;;;;;;;;5000481;28;20055;-61
2023/05/19 00:46:18;;;;;;;10.70;10.10;;;;;;;;;;4999855;28;20036;-61
2023/05/19 00:48:44;;;;;;;11.07;10.38;;;;;;;;;;4999458;28;20502;-62
2023/05/19 00:51:13;;;;;;;10.52;9.82;;;;;;;;;;4997772;28;20088;-62
2023/05/19 00:53:39;;;;;;;10.73;10.10;;;;;;;;;;4996577;28;20026;-62
2023/05/19 00:56:04;;;;;;;11.02;10.32;;;;;;;;;;4988260;28;20053;-62
2023/05/19 00:58:31;;;;;;;11.40;10.70;;;;;;;;;;4997708;28;20412;-62
2023/05/19 01:01:06;;;;;;;12.80;12.00;;;;;;;;;;4996455;28;20472;-62
2023/05/19 01:03:35;;;;;;;11.70;11.00;;;;;;;;;;4993814;28;20053;-62
2023/05/19 01:06:06;;;;;;;11.85;11.15;;;;;;;;;;4997004;28;20030;-62
2023/05/19 01:08:36;;;;;;;11.95;11.25;;;;;;;;;;4999088;28;20038;-63
2023/05/19 01:11:01;;;;;;;12.25;11.55;;;;;;;;;;4997504;28;20046;-62
2023/05/19 01:13:28;;;;;;;12.30;11.60;;;;;;;;;;4998995;28;20479;-63
2023/05/19 01:16:05;;;;;;;14.02;13.15;;;;;;;;;;4996149;28;20125;-63
2023/05/19 01:18:37;;;;;;;13.52;12.73;;;;;;;;;;4995834;28;20396;-63
2023/05/19 01:21:30;;;;;;;15.10;14.20;;;;;;;;;;5001563;28;20655;-63
2023/05/19 01:24:04;;;;;;;15.23;14.32;;;;;;;;;;4998401;28;20057;-63
2023/05/19 01:27:08;;;;;;;19.10;17.67;;;;;;;;;;4994845;28;20045;-62
2023/05/19 01:29:57;;;;;;;15.50;14.60;;;;;;;;;;4996169;28;20053;-62
2023/05/19 01:32:23;;;;;;;17.88;16.00;;;;;;;;;;4997507;28;20038;-62
2023/05/19 01:34:49;;;;;;;16.50;15.60;;;;;;;;;;4998463;28;20049;-63
2023/05/19 01:37:16;;;;;;;17.75;16.70;;;;;;;;;;4999140;28;20080;-63
2023/05/19 01:39:43;;;;;;;16.77;15.88;;;;;;;;;;4996388;28;20042;-63
2023/05/19 01:42:10;;;;;;;18.00;17.00;;;;;;;;;;4998087;28;20056;-62
2023/05/19 01:44:36;;;;;;;17.08;15.98;;;;;;;;;;5002685;28;20049;-62
2023/05/19 01:47:03;;;;;;;17.70;16.70;;;;;;;;;;4998036;28;20045;-62
2023/05/19 01:49:28;;;;;;;17.95;16.95;;;;;;;;;;4990701;28;20033;-62
2023/05/19 01:51:55;;;;;;;16.95;16.05;;;;;;;;;;4995358;28;20042;-61
2023/05/19 01:54:21;;;;;;;17.05;16.05;;;;;;;;;;4998786;28;20061;-62
2023/05/19 01:57:08;;;;;;;16.13;15.23;;;;;;;;;;4980710;28;20298;-63
2023/05/19 01:59:43;;;;;;;17.00;16.08;;;;;;;;;;5002668;28;20449;-63
2023/05/19 02:02:25;;;;;;;16.65;15.75;;;;;;;;;;4999115;28;20120;-63
2023/05/19 02:04:56;;;;;;;18.92;15.63;;;;;;;;;;5002216;28;20062;-63
2023/05/19 02:07:40;;;;;;;17.40;16.40;;;;;;;;;;5001508;28;20038;-63
2023/05/19 02:10:10;;;;;;;16.67;15.68;;;;;;;;;;5004986;28;20033;-63
2023/05/19 02:12:37;;;;;;;17.58;16.58;;;;;;;;;;4999495;28;20042;-63
2023/05/19 02:15:20;;;;;;;17.70;16.70;;;;;;;;;;4999524;28;20037;-63
2023/05/19 02:17:49;;;;;;;16.30;15.40;;;;;;;;;;5000981;28;20091;-63
2023/05/19 02:20:15;;;;;;;18.45;17.40;;;;;;;;;;4996894;28;20041;-63
2023/05/19 02:22:41;;;;;;;21.02;19.83;;;;;;;;;;5003612;28;20051;-63
2023/05/19 02:25:07;;;;;;;16.77;15.85;;;;;;;;;;4988507;28;20125;-63
2023/05/19 02:27:33;;;;;;;18.40;17.30;;;;;;;;;;5001943;28;20065;-63
2023/05/19 02:29:59;;;;;;;20.42;19.33;;;;;;;;;;5003307;28;20503;-63
2023/05/19 02:32:24;;;;;;;17.02;16.02;;;;;;;;;;5001323;28;20061;-63
2023/05/19 02:34:50;;;;;;;18.10;17.02;;;;;;;;;;5003411;28;20073;-64
2023/05/19 02:37:16;;;;;;;19.52;18.42;;;;;;;;;;5000884;28;20073;-63
2023/05/19 02:39:42;;;;;;;18.40;17.10;;;;;;;;;;5000210;28;20038;-63
2023/05/19 02:42:08;;;;;;;17.27;16.33;;;;;;;;;;4999077;28;20452;-63
2023/05/19 02:44:33;;;;;;;16.90;15.90;;;;;;;;;;4998707;28;20061;-62
2023/05/19 02:46:59;;;;;;;17.33;16.33;;;;;;;;;;4987216;28;20038;-62
2023/05/19 02:49:24;;;;;;;17.23;16.23;;;;;;;;;;4993316;28;20503;-62
2023/05/19 02:51:49;;;;;;;15.73;14.82;;;;;;;;;;4997943;28;20376;-62
2023/05/19 02:54:15;;;;;;;18.35;17.25;;;;;;;;;;5000197;28;20030;-62
2023/05/19 02:56:40;;;;;;;17.52;16.55;;;;;;;;;;4998086;28;20042;-62
2023/05/19 02:59:05;;;;;;;16.48;15.48;;;;;;;;;;5002182;28;20038;-62
2023/05/19 03:01:36;;;;;;;16.65;15.75;;;;;;;;;;4987565;28;20034;-62
2023/05/19 03:04:01;;;;;;;17.60;16.50;;;;;;;;;;4998781;28;20565;-62
2023/05/19 03:06:28;;;;;;;15.65;14.75;;;;;;;;;;4999370;28;20075;-62
2023/05/19 03:08:53;;;;;;;16.40;15.50;;;;;;;;;;5001249;28;20030;-62
2023/05/19 03:11:18;;;;;;;17.23;16.23;;;;;;;;;;4998063;28;20053;-63
2023/05/19 03:13:44;;;;;;;14.88;14.05;;;;;;;;;;4997455;28;20041;-62
2023/05/19 03:16:10;;;;;;;16.30;15.40;;;;;;;;;;4999080;28;20456;-62
2023/05/19 03:18:36;;;;;;;16.77;15.55;;;;;;;;;;5000361;28;20041;-62
2023/05/19 03:21:02;;;;;;;14.38;13.57;;;;;;;;;;5000526;28;20419;-63
2023/05/19 03:23:27;;;;;;;15.50;14.60;;;;;;;;;;4987738;28;20046;-62
2023/05/19 03:25:55;;;;;;;15.57;14.68;;;;;;;;;;4996428;28;20107;-63
2023/05/19 03:28:22;;;;;;;16.27;15.32;;;;;;;;;;4997022;28;20038;-62
2023/05/19 03:30:49;;;;;;;14.35;13.52;;;;;;;;;;4996817;28;20034;-63
2023/05/19 03:33:15;;;;;;;14.05;13.25;;;;;;;;;;5002538;28;20042;-62
2023/05/19 03:35:40;;;;;;;15.10;14.20;;;;;;;;;;4999380;28;20034;-62
2023/05/19 03:38:05;;;;;;;14.68;13.85;;;;;;;;;;5000189;28;20046;-63
2023/05/19 03:40:31;;;;;;;15.05;14.18;;;;;;;;;;4996674;28;20042;-62
2023/05/19 03:42:56;;;;;;;14.95;14.05;;;;;;;;;;5003085;28;20361;-62
2023/05/19 03:45:22;;;;;;;13.38;12.55;;;;;;;;;;4999437;28;20033;-61
2023/05/19 03:47:47;;;;;;;13.52;12.75;;;;;;;;;;5000513;28;20449;-62
2023/05/19 03:50:12;;;;;;;13.18;12.40;;;;;;;;;;4998456;28;20040;-62
2023/05/19 03:52:38;;;;;;;13.73;12.93;;;;;;;;;;4998805;28;20041;-60
2023/05/19 03:55:04;;;;;;;13.25;12.05;;;;;;;;;;5002596;28;20050;-61
2023/05/19 03:57:30;;;;;;;13.82;12.93;;;;;;;;;;4980035;28;20096;-61
2023/05/19 03:59:55;;;;;;;13.15;12.40;;;;;;;;;;4996797;28;20041;-61
2023/05/19 04:02:20;;;;;;;14.15;13.35;;;;;;;;;;4998870;28;20041;-61
2023/05/19 04:04:46;;;;;;;12.45;11.73;;;;;;;;;;5000461;28;20033;-61
2023/05/19 04:07:11;;;;;;;13.40;12.60;;;;;;;;;;4997780;28;20038;-61
2023/05/19 04:09:37;;;;;;;12.73;11.98;;;;;;;;;;4999834;28;20033;-61
2023/05/19 04:12:02;;;;;;;14.15;13.25;;;;;;;;;;4998123;28;20560;-61
2023/05/19 04:14:27;;;;;;;13.55;12.75;;;;;;;;;;4996597;28;20539;-61
2023/05/19 04:16:53;;;;;;;13.77;12.98;;;;;;;;;;4998315;28;20049;-61
2023/05/19 04:19:19;;;;;;;12.73;11.98;;;;;;;;;;5000182;28;20030;-62
2023/05/19 04:21:44;;;;;;;13.82;12.55;;;;;;;;;;4998559;28;20033;-61
2023/05/19 04:24:09;;;;;;;13.65;12.82;;;;;;;;;;4994180;28;20037;-61
2023/05/19 04:26:37;;;;;;;12.93;12.18;;;;;;;;;;4998195;28;20130;-61
2023/05/19 04:29:03;;;;;;;12.95;12.13;;;;;;;;;;4998167;28;20088;-61
2023/05/19 04:31:29;;;;;;;13.75;12.95;;;;;;;;;;4999218;28;20034;-61
2023/05/19 04:33:54;;;;;;;13.63;12.50;;;;;;;;;;4999856;28;20038;-61
2023/05/19 04:36:20;;;;;;;13.25;12.48;;;;;;;;;;4996761;28;20052;-61
2023/05/19 04:38:46;;;;;;;13.80;12.90;;;;;;;;;;4997802;28;20124;-62
2023/05/19 04:41:11;;;;;;;12.85;12.00;;;;;;;;;;4998474;28;20042;-61
2023/05/19 04:43:40;;;;;;;13.70;12.90;;;;;;;;;;4998951;28;20392;-60
2023/05/19 04:46:10;;;;;;;12.50;11.80;;;;;;;;;;4995964;28;20038;-61
2023/05/19 04:48:36;;;;;;;12.65;11.90;;;;;;;;;;4993688;28;20041;-61
2023/05/19 04:51:01;;;;;;;12.38;11.68;;;;;;;;;;4981805;28;20435;-61
2023/05/19 04:53:28;;;;;;;12.45;11.55;;;;;;;;;;4997868;28;20096;-61
2023/05/19 04:55:53;;;;;;;13.32;12.52;;;;;;;;;;4996396;28;20084;-61
2023/05/19 04:58:18;;;;;;;12.57;11.88;;;;;;;;;;4999328;28;20031;-60
2023/05/19 05:00:44;;;;;;;12.43;11.73;;;;;;;;;;4996005;28;20271;-61
2023/05/19 05:03:11;;;;;;;14.05;13.05;;;;;;;;;;4999330;28;20072;-60
2023/05/19 05:05:36;;;;;;;13.20;12.20;;;;;;;;;;4996541;28;20411;-61
2023/05/19 05:08:02;;;;;;;12.30;11.60;;;;;;;;;;4997849;28;20061;-61
2023/05/19 05:10:27;;;;;;;12.20;11.50;;;;;;;;;;4995361;28;20105;-61
2023/05/19 05:12:53;;;;;;;12.93;12.13;;;;;;;;;;4995316;28;20030;-60
2023/05/19 05:15:19;;;;;;;12.13;11.43;;;;;;;;;;4998215;28;20614;-61
2023/05/19 05:17:44;;;;;;;13.80;13.00;;;;;;;;;;4998642;28;20109;-61
2023/05/19 05:20:11;;;;;;;13.68;12.88;;;;;;;;;;4996254;28;20121;-57
2023/05/19 05:22:40;;;;;;;12.40;11.70;;;;;;;;;;4997051;28;20534;-57
2023/05/19 05:25:07;;;;;;;13.40;12.60;;;;;;;;;;4997909;28;20069;-58
2023/05/19 05:27:32;;;;;;;12.98;12.07;;;;;;;;;;4995647;28;20069;-58
2023/05/19 05:29:57;;;;;;;13.63;12.63;;;;;;;;;;4994985;28;20073;-57
2023/05/19 05:32:23;;;;;;;13.25;12.45;;;;;;;;;;4995925;28;20280;-58
2023/05/19 05:34:49;;;;;;;13.23;12.43;;;;;;;;;;4996029;28;20441;-58
2023/05/19 05:37:14;;;;;;;12.93;12.13;;;;;;;;;;4996079;28;20038;-61
2023/05/19 05:39:39;;;;;;;13.77;12.90;;;;;;;;;;4998255;28;20084;-61
2023/05/19 05:42:07;;;;;;;14.07;13.27;;;;;;;;;;4994103;28;20040;-62
2023/05/19 05:44:34;;;;;;;12.90;12.15;;;;;;;;;;4998247;28;20121;-61
2023/05/19 05:47:00;;;;;;;15.75;14.75;;;;;;;;;;4985960;28;20048;-62
2023/05/19 05:49:26;;;;;;;13.88;13.07;;;;;;;;;;4997524;28;20041;-61
2023/05/19 05:51:52;;;;;;;13.88;13.07;;;;;;;;;;4995866;28;20360;-63
2023/05/19 05:54:21;;;;;;;14.00;12.95;;;;;;;;;;4996768;28;20387;-61
2023/05/19 05:56:47;;;;;;;11.85;11.15;;;;;;;;;;4998245;28;20034;-62
2023/05/19 05:59:13;;;;;;;13.27;12.48;;;;;;;;;;4995657;28;20056;-62
2023/05/19 06:01:38;;;;;;;12.95;12.15;;;;;;;;;;4995894;28;20101;-62
2023/05/19 06:04:04;;;;;;;11.57;10.88;;;;;;;;;;4998778;28;20055;-62
2023/05/19 06:06:30;;;;;;;12.13;11.38;;;;;;;;;;4997751;28;20052;-62
2023/05/19 06:08:55;;;;;;;12.73;11.82;;;;;;;;;;4996773;28;20128;-62
2023/05/19 06:11:20;;;;;;;12.80;11.90;;;;;;;;;;4995614;28;20742;-61
2023/05/19 06:13:46;;;;;;;12.00;11.30;;;;;;;;;;4997627;28;20507;-62
2023/05/19 06:16:11;;;;;;;12.55;11.75;;;;;;;;;;4998229;28;20628;-63
2023/05/19 06:18:36;;;;;;;12.32;11.63;;;;;;;;;;4998635;28;20049;-64
2023/05/19 06:21:02;;;;;;;13.55;12.75;;;;;;;;;;4999362;28;20474;-62
2023/05/19 06:23:29;;;;;;;13.88;12.98;;;;;;;;;;4995927;28;20030;-63
2023/05/19 06:25:55;;;;;;;12.63;11.93;;;;;;;;;;4994541;28;20034;-62
2023/05/19 06:28:20;;;;;;;12.13;11.43;;;;;;;;;;4998012;28;20030;-63
2023/05/19 06:30:46;;;;;;;12.63;11.93;;;;;;;;;;4998970;28;20105;-62
2023/05/19 06:33:11;;;;;;;12.43;11.73;;;;;;;;;;4998446;28;20026;-62
2023/05/19 06:35:37;;;;;;;12.73;12.00;;;;;;;;;;4995069;28;20385;-62
2023/05/19 06:38:02;;;;;;;13.45;12.55;;;;;;;;;;4997748;28;20120;-62
2023/05/19 06:40:27;;;;;;;12.45;11.65;;;;;;;;;;4984590;28;20365;-62
2023/05/19 06:42:53;;;;;;;12.95;12.23;;;;;;;;;;4998984;28;21508;-62
2023/05/19 06:45:20;;;;;;;15.18;14.27;;;;;;;;;;4981547;28;20251;-62
2023/05/19 06:47:46;;;;;;;14.82;13.77;;;;;;;;;;4999797;28;20037;-62
2023/05/19 06:50:11;;;;;;;14.88;13.98;;;;;;;;;;4999667;28;20052;-58
2023/05/19 06:52:37;;;;;;;15.35;14.20;;;;;;;;;;4983654;28;20128;-58
2023/05/19 06:55:02;;;;;;;13.20;12.40;;;;;;;;;;4999483;28;20026;-58
2023/05/19 06:57:28;;;;;;;17.25;15.10;;;;;;;;;;4996171;28;20563;-57
2023/05/19 06:59:53;;;;;;;12.73;11.93;;;;;;;;;;5000182;28;20567;-57
2023/05/19 07:02:18;;;;;;;13.77;12.80;;;;;;;;;;4996446;28;20042;-57
2023/05/19 07:04:44;;;;;;;13.63;12.82;;;;;;;;;;4995372;28;20124;-57
2023/05/19 07:07:09;;;;;;;12.60;11.88;;;;;;;;;;5000072;28;20041;-57
2023/05/19 07:09:35;;;;;;;13.20;12.18;;;;;;;;;;4996232;28;20037;-57
2023/05/19 07:12:00;;;;;;;12.40;11.70;;;;;;;;;;4999970;28;20041;-58
2023/05/19 07:14:26;;;;;;;11.60;10.90;;;;;;;;;;5001147;28;20038;-58
2023/05/19 07:16:52;;;;;;;11.88;11.18;;;;;;;;;;4998224;28;20038;-58
2023/05/19 07:19:20;;;;;;;12.80;12.07;;;;;;;;;;4997023;28;20038;-58
2023/05/19 07:21:46;;;;;;;11.40;10.70;;;;;;;;;;4999269;28;20185;-57
2023/05/19 07:24:11;;;;;;;11.57;10.88;;;;;;;;;;5000219;28;20108;-57
2023/05/19 07:26:36;;;;;;;11.93;11.23;;;;;;;;;;4997353;28;20528;-58
2023/05/19 07:29:02;;;;;;;11.55;10.85;;;;;;;;;;5002069;28;20048;-57
2023/05/19 07:31:27;;;;;;;12.50;11.80;;;;;;;;;;5003597;28;20038;-57
2023/05/19 07:33:53;;;;;;;12.27;11.57;;;;;;;;;;4998441;28;20927;-57
2023/05/19 07:36:18;;;;;;;11.77;11.07;;;;;;;;;;5002400;28;20383;-57
2023/05/19 07:38:45;;;;;;;13.23;12.32;;;;;;;;;;4998229;28;20088;-58
2023/05/19 07:41:10;;;;;;;11.45;10.70;;;;;;;;;;4999318;28;20061;-57
2023/05/19 07:43:36;;;;;;;12.85;12.10;;;;;;;;;;4998912;28;20096;-57
2023/05/19 07:46:01;;;;;;;13.02;12.25;;;;;;;;;;4990681;28;20061;-57
2023/05/19 07:48:27;;;;;;;13.43;12.63;;;;;;;;;;4988256;28;20034;-58
2023/05/19 07:50:52;;;;;;;13.32;12.52;;;;;;;;;;4999027;28;20045;-57
2023/05/19 07:53:18;;;;;;;14.65;13.85;;;;;;;;;;5001385;28;20857;-58
2023/05/19 07:55:45;;;;;;;14.68;13.85;;;;;;;;;;4992839;28;20046;-57
2023/05/19 07:58:10;;;;;;;14.50;13.70;;;;;;;;;;5000063;28;20034;-58
2023/05/19 08:00:36;;;;;;;14.82;14.00;;;;;;;;;;4998913;28;20446;-57
2023/05/19 08:03:02;;;;;;;17.25;16.25;;;;;;;;;;4995132;28;20025;-57
2023/05/19 08:05:28;;;;;;;16.23;15.32;;;;;;;;;;4985614;28;20100;-57
2023/05/19 08:07:55;;;;;;;19.17;17.70;;;;;;;;;;4997714;28;20513;-58
2023/05/19 08:10:20;;;;;;;16.33;15.35;;;;;;;;;;4998985;28;20456;-58
2023/05/19 08:12:46;;;;;;;18.10;16.55;;;;;;;;;;4998881;28;20040;-57
2023/05/19 08:15:11;;;;;;;17.67;16.48;;;;;;;;;;5001650;28;20041;-58
2023/05/19 08:17:37;;;;;;;17.20;16.23;;;;;;;;;;4986453;28;20728;-58
2023/05/19 08:20:05;;;;;;;16.45;15.55;;;;;;;;;;4999730;28;20353;-58
2023/05/19 08:22:30;;;;;;;15.85;14.85;;;;;;;;;;4998602;28;20479;-58
2023/05/19 08:24:55;;;;;;;25.60;15.43;;;;;;;;;;4999701;28;20033;-58
2023/05/19 08:27:21;;;;;;;16.75;15.73;;;;;;;;;;4999767;28;20046;-57
2023/05/19 08:29:46;;;;;;;15.73;14.40;;;;;;;;;;4998115;28;20058;-58
2023/05/19 08:32:11;;;;;;;16.80;15.88;;;;;;;;;;5000191;28;20063;-57
2023/05/19 08:34:37;;;;;;;15.07;14.18;;;;;;;;;;4998664;28;20092;-57
2023/05/19 08:37:02;;;;;;;13.63;12.82;;;;;;;;;;4997198;28;20041;-58
2023/05/19 08:39:28;;;;;;;14.75;13.85;;;;;;;;;;4997820;28;20109;-57
2023/05/19 08:41:53;;;;;;;15.77;14.88;;;;;;;;;;4996983;28;20053;-57
2023/05/19 08:44:19;;;;;;;13.90;13.10;;;;;;;;;;4997913;28;20478;-58
2023/05/19 08:46:46;;;;;;;14.77;13.98;;;;;;;;;;4997318;28;20034;-57
2023/05/19 08:49:13;;;;;;;14.85;13.95;;;;;;;;;;5000084;28;20045;-59
2023/05/19 08:52:01;;;;;;;16.85;15.85;;;;;;;;;;4998559;28;21312;-58
2023/05/19 08:54:34;;;;;;;13.75;12.95;;;;;;;;;;5001088;28;20561;-58
2023/05/19 08:57:00;;;;;;;15.80;14.90;;;;;;;;;;4996623;28;20069;-58
2023/05/19 08:59:26;;;;;;;15.90;14.98;;;;;;;;;;4997075;28;20165;-58
2023/05/19 09:01:53;;;;;;;19.38;18.27;;;;;;;;;;4994665;28;20117;-58
2023/05/19 09:04:19;;;;;;;19.50;18.40;;;;;;;;;;4997167;28;20539;-58
2023/05/19 09:06:45;;;;;;;18.48;17.38;;;;;;;;;;4996178;28;20096;-58
2023/05/19 09:09:10;;;;;;;19.42;18.38;;;;;;;;;;4997439;28;20046;-59
2023/05/19 09:11:36;;;;;;;17.92;16.90;;;;;;;;;;4997735;28;20033;-59
2023/05/19 09:14:03;;;;;;;21.38;20.17;;;;;;;;;;4997810;28;20731;-58
2023/05/19 09:16:28;;;;;;;28.00;26.52;;;;;;;;;;4997311;28;20034;-58
2023/05/19 09:18:57;;;;;;;29.40;27.88;;;;;;;;;;4994017;28;20041;-58
2023/05/19 09:21:31;;;;;;;23.30;22.08;;;;;;;;;;4995427;28;20041;-58
2023/05/19 09:23:58;;;;;;;17.73;16.73;;;;;;;;;;4993603;28;20503;-58
2023/05/19 09:26:23;;;;;;;32.38;30.55;;;;;;;;;;4996405;28;20120;-59
2023/05/19 09:28:49;;;;;;;33.13;31.23;;;;;;;;;;4998061;28;20238;-58
2023/05/19 09:31:15;;;;;;;32.78;31.08;;;;;;;;;;5000331;28;20029;-59
2023/05/19 09:33:41;;;;;;;29.92;28.25;;;;;;;;;;4998969;28;20042;-58
2023/05/19 09:36:07;;;;;;;31.60;29.98;;;;;;;;;;4996392;28;20100;-58
2023/05/19 09:38:35;;;;;;;32.45;30.75;;;;;;;;;;5002629;28;20038;-58
2023/05/19 09:41:00;;;;;;;32.80;31.10;;;;;;;;;;4998835;28;20038;-59
2023/05/19 09:43:27;;;;;;;34.08;32.17;;;;;;;;;;4997822;28;20550;-59
2023/05/19 09:46:14;;;;;;;33.30;31.60;;;;;;;;;;4987437;28;20057;-58
2023/05/19 09:48:40;;;;;;;30.95;29.35;;;;;;;;;;4983264;28;20046;-58
2023/05/19 09:51:09;;;;;;;26.45;25.05;;;;;;;;;;4980698;28;20100;-60
2023/05/19 09:53:35;;;;;;;33.35;31.65;;;;;;;;;;4998202;28;20527;-59
2023/05/19 09:56:02;;;;;;;33.08;30.98;;;;;;;;;;4983317;28;20049;-58
2023/05/19 09:58:33;;;;;;;34.95;33.05;;;;;;;;;;4999560;28;20034;-58
2023/05/19 10:01:00;;;;;;;32.67;30.98;;;;;;;;;;4995812;28;20038;-59
2023/05/19 10:03:26;;;;;;;24.63;23.33;;;;;;;;;;4998031;28;20034;-59
2023/05/19 10:05:52;;;;;;;26.90;25.50;;;;;;;;;;4994849;28;20034;-58
2023/05/19 10:08:18;;;;;;;33.30;31.55;;;;;;;;;;5001248;28;20088;-58
2023/05/19 10:10:46;;;;;;;34.85;32.95;;;;;;;;;;4998542;28;20058;-58
2023/05/19 10:13:11;;;;;;;23.73;22.42;;;;;;;;;;4996353;28;20042;-59
2023/05/19 10:15:39;;;;;;;24.75;23.42;;;;;;;;;;4998146;28;20030;-58
2023/05/19 10:18:07;;;;;;;26.05;24.65;;;;;;;;;;4980275;28;20050;-59
2023/05/19 10:20:33;;;;;;;24.60;23.30;;;;;;;;;;4999687;28;20040;-58
2023/05/19 10:22:59;;;;;;;28.30;26.75;;;;;;;;;;5000483;28;20042;-58
2023/05/19 10:25:25;;;;;;;25.83;24.42;;;;;;;;;;5002390;28;20367;-58
2023/05/19 10:27:55;;;;;;;37.25;35.13;;;;;;;;;;5000707;28;20038;-59
2023/05/19 10:30:49;;;;;;;34.00;31.95;;;;;;;;;;4990250;28;20109;-58
2023/05/19 10:33:17;;;;;;;27.58;25.98;;;;;;;;;;4995894;28;20042;-58
2023/05/19 10:35:56;;;;;;;27.42;25.90;;;;;;;;;;5001117;28;20042;-59
2023/05/19 10:38:41;;;;;;;26.67;24.88;;;;;;;;;;5001513;28;20034;-58
2023/05/19 10:41:15;;;;;;;24.27;22.95;;;;;;;;;;5001130;28;20064;-58
2023/05/19 10:43:53;;;;;;;23.38;22.13;;;;;;;;;;4998942;28;20033;-58
2023/05/19 10:46:22;;;;;;;27.45;26.00;;;;;;;;;;4998735;28;20117;-59
2023/05/19 10:48:48;;;;;;;22.10;20.90;;;;;;;;;;4999411;28;20096;-58
2023/05/19 10:51:13;;;;;;;23.73;22.42;;;;;;;;;;5002136;28;20026;-58
2023/05/19 10:53:48;;;;;;;24.88;23.50;;;;;;;;;;5001509;28;20527;-58
2023/05/19 10:56:32;;;;;;;23.85;22.55;;;;;;;;;;4998048;28;20571;-58
2023/05/19 10:58:58;;;;;;;28.98;27.42;;;;;;;;;;4999303;28;20033;-58
2023/05/19 11:01:35;;;;;;;31.58;29.92;;;;;;;;;;4998384;28;20742;-61
2023/05/19 11:04:06;;;;;;;28.63;27.02;;;;;;;;;;5000173;28;20135;-57
2023/05/19 11:06:34;;;;;;;26.30;24.90;;;;;;;;;;5001851;28;20034;-58
2023/05/19 11:09:11;;;;;;;25.63;24.25;;;;;;;;;;4997618;28;20049;-58
2023/05/19 11:11:53;;;;;;;25.20;23.80;;;;;;;;;;4996727;28;20029;-58
2023/05/19 11:14:25;;;;;;;27.17;25.65;;;;;;;;;;4999683;28;20674;-57
2023/05/19 11:16:55;;;;;;;27.67;26.20;;;;;;;;;;4998198;28;20038;-58
2023/05/19 11:19:28;;;;;;;36.38;34.50;;;;;;;;;;4997148;28;20368;-58
2023/05/19 11:21:54;;;;;;;36.13;34.28;;;;;;;;;;4997906;28;20042;-59
2023/05/19 11:24:43;;;;;;;33.33;31.63;;;;;;;;;;4999302;28;20159;-59
2023/05/19 11:27:17;;;;;;;34.63;32.80;;;;;;;;;;4999189;28;20112;-59
2023/05/19 11:29:43;;;;;;;37.22;35.33;;;;;;;;;;4999957;28;20059;-58
2023/05/19 11:32:10;;;;;;;37.08;35.17;;;;;;;;;;4998479;28;20030;-58
2023/05/19 11:34:37;;;;;;;36.65;34.75;;;;;;;;;;5000243;28;20678;-58
2023/05/19 11:37:03;;;;;;;38.60;36.55;;;;;;;;;;5000271;28;20048;-58
2023/05/19 11:39:30;;;;;;;32.72;30.98;;;;;;;;;;5000801;28;20060;-58
2023/05/19 11:41:55;;;;;;;33.33;31.60;;;;;;;;;;4998240;28;20053;-58
2023/05/19 11:44:21;;;;;;;37.00;34.80;;;;;;;;;;4997243;28;20555;-57
2023/05/19 11:46:46;;;;;;;39.80;37.72;;;;;;;;;;4996526;28;20375;-57
2023/05/19 11:49:12;;;;;;;40.95;38.88;;;;;;;;;;4999470;28;20033;-57
2023/05/19 11:51:38;;;;;;;43.38;41.17;;;;;;;;;;5000731;28;20458;-58
2023/05/19 11:54:03;;;;;;;39.75;37.70;;;;;;;;;;4995905;28;20113;-58
2023/05/19 11:56:39;;;;;;;41.92;39.80;;;;;;;;;;4998183;28;20583;-58
2023/05/19 11:59:04;;;;;;;43.35;41.15;;;;;;;;;;4996350;28;20042;-57
2023/05/19 12:01:30;;;;;;;44.50;42.22;;;;;;;;;;5003054;28;20761;-57
2023/05/19 12:03:56;;;;;;;47.50;45.10;;;;;;;;;;4995995;28;20038;-58
2023/05/19 12:06:22;;;;;;;42.53;40.38;;;;;;;;;;4996588;28;20040;-57
2023/05/19 12:08:50;;;;;;;45.60;43.28;;;;;;;;;;4996484;28;20460;-57
2023/05/19 12:11:15;;;;;;;47.58;45.15;;;;;;;;;;4992972;28;20034;-58
2023/05/19 12:13:41;;;;;;;46.58;44.20;;;;;;;;;;4997733;28;20723;-57
2023/05/19 12:16:07;;;;;;;47.30;44.90;;;;;;;;;;4995869;28;20037;-58
2023/05/19 12:18:37;;;;;;;44.45;42.17;;;;;;;;;;4995200;28;20090;-58
2023/05/19 12:21:03;;;;;;;42.72;40.42;;;;;;;;;;4981535;28;20120;-58
2023/05/19 12:23:31;;;;;;;40.83;38.78;;;;;;;;;;5000288;28;20037;-57
2023/05/19 12:25:58;;;;;;;41.30;39.22;;;;;;;;;;4996243;28;20050;-58
2023/05/19 12:28:23;;;;;;;40.83;38.78;;;;;;;;;;4998274;28;20066;-57
2023/05/19 12:30:51;;;;;;;40.78;38.58;;;;;;;;;;4995099;28;20069;-57
2023/05/19 12:33:21;;;;;;;40.22;38.13;;;;;;;;;;4997619;28;20153;-57
2023/05/19 12:35:48;;;;;;;;;;;;;;;;;;4999089;28;20049;-57
2023/05/19 12:38:14;;;;;;;29.90;28.33;;;;;;;;;;4982468;28;19922;-58
2023/05/19 12:40:41;;;;;;;31.63;30.00;;;;;;;;;;4996753;28;20121;-58
2023/05/19 12:43:08;;;;;;;33.55;31.83;;;;;;;;;;4996079;28;20052;-58
2023/05/19 12:45:38;;;;;;;35.58;33.78;;;;;;;;;;4997614;28;20450;-58
2023/05/19 12:48:05;;;;;;;;;;;;;;;;;;4998812;28;20147;-57
2023/05/19 12:50:31;;;;;;;25.98;24.60;;;;;;;;;;4999961;28;20025;-57
2023/05/19 12:52:58;;;;;;;30.30;28.70;;;;;;;;;;4995536;28;20045;-58
2023/05/19 12:55:24;;;;;;;37.63;35.28;;;;;;;;;;4998462;28;20637;-64
2023/05/19 12:57:53;;;;;;;40.85;38.75;;;;;;;;;;4995756;28;20046;-64
2023/05/19 13:00:21;;;;;;;41.10;39.00;;;;;;;;;;4999299;28;20041;-64
2023/05/19 13:03:05;;;;;;;43.15;40.92;;;;;;;;;;4996664;28;20034;-64
2023/05/19 13:05:32;;;;;;;39.65;37.53;;;;;;;;;;4993635;28;20053;-63
2023/05/19 13:08:08;;;;;;;36.45;34.55;;;;;;;;;;5001523;28;20041;-64
2023/05/19 13:10:35;;;;;;;37.70;35.78;;;;;;;;;;4997484;28;20033;-63
2023/05/19 13:13:01;;;;;;;35.30;33.45;;;;;;;;;;4998017;28;20026;-65
2023/05/19 13:15:36;;;;;;;42.25;40.10;;;;;;;;;;4996403;28;20026;-64
2023/05/19 13:18:04;;;;;;;43.75;41.50;;;;;;;;;;4977363;28;20147;-65
2023/05/19 13:20:30;;;;;;;41.03;38.88;;;;;;;;;;4980469;28;20041;-64
2023/05/19 13:22:56;;;;;;;42.20;40.08;;;;;;;;;;4998447;28;20034;-64
2023/05/19 13:25:21;;;;;;;40.78;38.67;;;;;;;;;;4995873;28;20033;-64
2023/05/19 13:27:47;;;;;;;40.45;38.38;;;;;;;;;;4999542;28;20426;-64
2023/05/19 13:30:14;;;;;;;38.30;36.28;;;;;;;;;;4993440;28;20119;-64
2023/05/19 13:32:40;;;;;;;40.72;38.42;;;;;;;;;;4997214;28;20068;-63
2023/05/19 13:35:05;;;;;;;41.58;39.45;;;;;;;;;;4995588;28;20073;-64
2023/05/19 13:37:31;;;;;;;42.35;40.17;;;;;;;;;;4998948;28;20091;-64
2023/05/19 13:39:57;;;;;;;42.63;40.47;;;;;;;;;;4996771;28;20454;-64
2023/05/19 13:42:23;;;;;;;44.72;42.47;;;;;;;;;;4994148;28;20073;-64
2023/05/19 13:44:48;;;;;;;40.45;38.38;;;;;;;;;;4980536;28;20173;-64
2023/05/19 13:47:13;;;;;;;41.67;39.53;;;;;;;;;;4998422;28;20046;-65
2023/05/19 13:49:40;;;;;;;40.85;38.80;;;;;;;;;;4996556;28;20063;-63
2023/05/19 13:52:06;;;;;;;37.90;35.95;;;;;;;;;;4996650;28;20034;-63
2023/05/19 13:54:32;;;;;;;34.60;32.85;;;;;;;;;;4998562;28;20041;-63
2023/05/19 13:56:58;;;;;;;38.33;36.35;;;;;;;;;;4999928;28;20117;-63
2023/05/19 13:59:24;;;;;;;34.83;33.03;;;;;;;;;;4999671;28;20121;-64
2023/05/19 14:01:50;;;;;;;32.10;30.42;;;;;;;;;;5002295;28;20058;-63
2023/05/19 14:04:17;;;;;;;31.90;30.25;;;;;;;;;;4998812;28;20061;-63
2023/05/19 14:06:44;;;;;;;32.72;31.02;;;;;;;;;;5000406;28;20038;-63
2023/05/19 14:09:10;;;;;;;33.55;31.75;;;;;;;;;;4999356;28;20045;-63
2023/05/19 14:11:35;;;;;;;33.83;32.08;;;;;;;;;;5001496;28;20096;-64
2023/05/19 14:14:02;;;;;;;32.55;30.85;;;;;;;;;;5001953;28;20044;-64
2023/05/19 14:16:28;;;;;;;28.55;27.05;;;;;;;;;;4999277;28;20145;-64
2023/05/19 14:18:53;;;;;;;32.30;30.65;;;;;;;;;;4997044;28;20037;-63